Time;durP1;ratioP1;P1;durP2;ratioP2;P2;SDS_P1;SDS_P2;PMS_P1;PMS_P2;Temp;Humidity;BMP_temperature;BMP_pressure;BME280_temperature;BME280_humidity;BME280_pressure;Samples;Min_cycle;Max_cycle;Signal;HPM_P1;HPM_P2
2021/05/05 00:01:57;;;;;;;2.20;2.00;;;9.40;99.90;;;;;;5096436;28;20248;-73
2021/05/05 00:04:24;;;;;;;1.98;1.80;;;9.40;99.90;;;;;;5096445;28;20444;-72
2021/05/05 00:06:50;;;;;;;2.00;1.90;;;9.30;99.90;;;;;;5096579;28;20169;-73
2021/05/05 00:09:17;;;;;;;2.03;1.88;;;9.20;99.90;;;;;;5096026;28;20208;-73
2021/05/05 00:11:43;;;;;;;2.25;2.15;;;9.20;99.90;;;;;;5096238;28;20165;-73
2021/05/05 00:14:13;;;;;;;3.80;2.55;;;9.30;99.90;;;;;;5096449;28;20169;-72
2021/05/05 00:16:39;;;;;;;2.55;2.45;;;9.30;99.90;;;;;;5096109;28;20180;-72
2021/05/05 00:19:05;;;;;;;2.37;1.90;;;9.20;99.90;;;;;;5095829;28;20208;-72
2021/05/05 00:21:32;;;;;;;3.08;2.58;;;9.20;99.90;;;;;;5094773;28;20693;-72
2021/05/05 00:23:58;;;;;;;1.63;1.52;;;9.20;99.90;;;;;;5096199;28;20259;-72
2021/05/05 00:26:24;;;;;;;2.50;2.30;;;9.30;99.90;;;;;;5096646;28;20644;-73
2021/05/05 00:28:50;;;;;;;2.70;2.50;;;9.40;99.90;;;;;;5095647;28;20256;-73
2021/05/05 00:31:16;;;;;;;2.87;2.63;;;9.40;99.90;;;;;;5095854;28;20196;-73
2021/05/05 00:33:43;;;;;;;6.00;2.47;;;9.40;99.90;;;;;;5095901;28;20695;-72
2021/05/05 00:36:08;;;;;;;2.38;2.17;;;9.30;99.90;;;;;;5095910;28;20189;-73
2021/05/05 00:38:34;;;;;;;2.33;2.13;;;9.20;99.90;;;;;;5095381;28;20566;-73
2021/05/05 00:41:00;;;;;;;2.43;2.23;;;9.20;99.90;;;;;;5094725;28;20562;-72
2021/05/05 00:43:26;;;;;;;2.63;2.30;;;9.10;99.90;;;;;;5095602;28;20172;-73
2021/05/05 00:45:51;;;;;;;4.97;2.40;;;9.20;99.90;;;;;;5095793;28;20238;-72
2021/05/05 00:48:17;;;;;;;2.07;1.97;;;9.10;99.90;;;;;;5094292;28;20172;-72
2021/05/05 00:50:43;;;;;;;2.27;1.80;;;9.10;99.90;;;;;;5095248;28;20196;-72
2021/05/05 00:53:08;;;;;;;2.77;2.57;;;9.10;99.90;;;;;;5094309;28;20175;-72
2021/05/05 00:55:34;;;;;;;2.27;2.07;;;9.20;99.90;;;;;;5095336;28;20177;-73
2021/05/05 00:58:00;;;;;;;1.67;1.57;;;9.10;99.90;;;;;;5095720;28;20197;-72
2021/05/05 01:00:26;;;;;;;2.40;1.80;;;9.00;99.90;;;;;;5095107;28;20932;-72
2021/05/05 01:02:51;;;;;;;2.37;2.17;;;9.00;99.90;;;;;;5095544;28;20168;-72
2021/05/05 01:05:17;;;;;;;3.30;2.90;;;9.10;99.90;;;;;;5095314;28;20187;-72
2021/05/05 01:07:43;;;;;;;2.40;2.20;;;9.20;99.90;;;;;;5095355;28;20235;-72
2021/05/05 01:10:12;;;;;;;1.90;1.80;;;9.20;99.90;;;;;;5093679;28;20812;-72
2021/05/05 01:12:38;;;;;;;1.92;1.83;;;9.10;99.90;;;;;;5095078;28;20403;-73
2021/05/05 01:15:05;;;;;;;2.28;2.03;;;9.10;99.90;;;;;;5095017;28;20654;-73
2021/05/05 01:17:32;;;;;;;2.80;2.20;;;9.10;99.90;;;;;;5095120;28;20169;-72
2021/05/05 01:19:58;;;;;;;1.88;1.30;;;9.20;99.90;;;;;;5094720;28;20549;-73
2021/05/05 01:22:24;;;;;;;1.63;1.53;;;9.10;99.90;;;;;;5094808;28;20203;-72
2021/05/05 01:24:50;;;;;;;1.93;1.80;;;8.90;99.90;;;;;;5095026;28;20193;-73
2021/05/05 01:27:16;;;;;;;1.53;1.43;;;8.90;99.90;;;;;;5094738;28;20439;-72
2021/05/05 01:29:44;;;;;;;3.80;1.77;;;8.90;99.90;;;;;;5094522;28;20188;-73
2021/05/05 01:32:10;;;;;;;1.40;1.30;;;9.10;99.90;;;;;;5094644;28;20897;-72
2021/05/05 01:34:36;;;;;;;1.17;1.07;;;9.00;99.90;;;;;;5095206;28;20183;-73
2021/05/05 01:37:02;;;;;;;1.93;1.83;;;8.90;99.90;;;;;;5094722;28;20735;-73
2021/05/05 01:39:28;;;;;;;1.17;1.10;;;8.80;99.90;;;;;;5094207;28;20204;-72
2021/05/05 01:41:54;;;;;;;1.20;1.13;;;8.70;99.90;;;;;;5094522;28;20640;-72
2021/05/05 01:44:32;;;;;;;1.42;1.33;;;8.90;99.90;;;;;;5094303;28;20559;-73
2021/05/05 01:46:58;;;;;;;1.40;1.30;;;9.00;99.90;;;;;;5094504;28;20173;-73
2021/05/05 01:49:25;;;;;;;1.57;1.47;;;9.10;99.90;;;;;;5094195;28;20198;-73
2021/05/05 01:51:54;;;;;;;1.73;1.30;;;8.90;99.90;;;;;;5093787;28;20406;-73
2021/05/05 01:54:22;;;;;;;1.10;1.10;;;9.00;99.90;;;;;;5094434;28;20219;-72
2021/05/05 01:56:47;;;;;;;1.42;1.35;;;8.90;99.90;;;;;;5094292;28;20183;-72
2021/05/05 01:59:13;;;;;;;1.43;1.33;;;8.90;99.90;;;;;;5093951;28;20205;-73
2021/05/05 02:01:39;;;;;;;1.13;1.03;;;8.60;99.90;;;;;;5094154;28;20659;-72
2021/05/05 02:04:04;;;;;;;1.20;1.10;;;8.60;99.90;;;;;;5094243;28;20199;-73
2021/05/05 02:06:31;;;;;;;1.37;1.27;;;8.70;99.90;;;;;;5094471;28;20172;-72
2021/05/05 02:08:58;;;;;;;1.05;1.05;;;8.60;99.90;;;;;;5093623;28;20176;-73
2021/05/05 02:11:24;;;;;;;0.90;0.90;;;8.60;99.90;;;;;;5092726;28;20550;-72
2021/05/05 02:13:51;;;;;;;1.23;1.13;;;8.80;99.90;;;;;;5094054;28;20175;-73
2021/05/05 02:16:17;;;;;;;1.40;1.30;;;8.90;99.90;;;;;;5094065;28;20168;-73
2021/05/05 02:18:43;;;;;;;0.90;0.90;;;9.00;99.90;;;;;;5093649;28;20188;-72
2021/05/05 02:21:08;;;;;;;0.77;0.77;;;9.10;99.90;;;;;;5093730;28;20421;-73
2021/05/05 02:23:34;;;;;;;0.70;0.70;;;9.10;99.90;;;;;;5093886;28;20623;-72
2021/05/05 02:26:00;;;;;;;0.65;0.65;;;9.10;99.90;;;;;;5094096;28;20232;-72
2021/05/05 02:28:26;;;;;;;0.60;0.60;;;9.10;99.90;;;;;;5093787;28;20168;-72
2021/05/05 02:30:52;;;;;;;0.80;0.77;;;9.00;99.90;;;;;;5093403;28;20194;-72
2021/05/05 02:33:20;;;;;;;0.60;0.60;;;8.80;99.90;;;;;;5093788;28;20410;-73
2021/05/05 02:35:47;;;;;;;0.88;0.80;;;8.80;99.90;;;;;;5093462;28;20414;-73
2021/05/05 02:38:13;;;;;;;0.95;0.77;;;8.80;99.90;;;;;;5093497;28;20562;-73
2021/05/05 02:40:38;;;;;;;0.60;0.60;;;8.70;99.90;;;;;;5093322;28;20536;-73
2021/05/05 02:43:04;;;;;;;0.60;0.60;;;8.70;99.90;;;;;;5092258;28;20179;-72
2021/05/05 02:45:30;;;;;;;0.83;0.83;;;8.50;99.90;;;;;;5093628;28;20188;-72
2021/05/05 02:47:56;;;;;;;0.90;0.50;;;8.50;99.90;;;;;;5093572;28;20627;-73
2021/05/05 02:50:22;;;;;;;0.97;0.97;;;8.60;99.90;;;;;;5093185;28;20208;-72
2021/05/05 02:52:47;;;;;;;2.78;0.95;;;8.60;99.90;;;;;;5093339;28;20176;-73
2021/05/05 02:55:14;;;;;;;0.50;0.50;;;8.70;99.90;;;;;;5093496;28;20172;-72
2021/05/05 02:57:40;;;;;;;0.40;0.40;;;8.70;99.90;;;;;;5092205;28;20171;-72
2021/05/05 03:00:10;;;;;;;0.40;0.40;;;8.40;99.90;;;;;;5093096;28;20253;-72
2021/05/05 03:02:36;;;;;;;0.50;0.50;;;8.50;99.90;;;;;;5093763;28;20204;-72
2021/05/05 03:05:04;;;;;;;0.47;0.47;;;8.50;99.90;;;;;;5096290;28;20210;-73
2021/05/05 03:07:30;;;;;;;0.47;0.40;;;8.60;99.90;;;;;;5097698;28;20433;-72
2021/05/05 03:09:56;;;;;;;0.70;0.70;;;8.50;99.90;;;;;;5096997;28;20245;-73
2021/05/05 03:12:22;;;;;;;0.30;0.30;;;8.40;99.90;;;;;;5097392;28;20221;-72
2021/05/05 03:14:47;;;;;;;0.30;0.30;;;8.20;99.90;;;;;;5097469;28;20172;-72
2021/05/05 03:17:13;;;;;;;0.30;0.30;;;8.00;99.90;;;;;;5097426;28;20174;-73
2021/05/05 03:19:39;;;;;;;0.30;0.30;;;7.90;99.90;;;;;;5096979;28;20198;-73
2021/05/05 03:22:06;;;;;;;0.30;0.30;;;7.80;99.90;;;;;;5095921;28;20628;-73
2021/05/05 03:24:32;;;;;;;0.40;0.40;;;7.80;99.90;;;;;;5097240;28;20643;-73
2021/05/05 03:26:57;;;;;;;0.40;0.40;;;7.60;99.90;;;;;;5097094;28;20267;-72
2021/05/05 03:29:23;;;;;;;0.40;0.40;;;7.60;99.90;;;;;;5097020;28;20659;-72
2021/05/05 03:31:48;;;;;;;0.50;0.40;;;7.60;99.90;;;;;;5097006;28;20178;-72
2021/05/05 03:34:14;;;;;;;0.50;0.40;;;7.50;99.90;;;;;;5097144;28;20173;-72
2021/05/05 03:36:41;;;;;;;0.30;0.30;;;7.30;99.90;;;;;;5096922;28;20163;-73
2021/05/05 03:39:07;;;;;;;0.40;0.40;;;7.50;99.90;;;;;;5095314;28;20676;-73
2021/05/05 03:41:32;;;;;;;0.40;0.40;;;7.60;99.90;;;;;;5096931;28;20179;-72
2021/05/05 03:43:58;;;;;;;0.40;0.40;;;7.70;99.90;;;;;;5096942;28;20171;-73
2021/05/05 03:46:24;;;;;;;0.40;0.40;;;7.70;99.90;;;;;;5096690;28;20542;-72
2021/05/05 03:48:51;;;;;;;0.30;0.30;;;7.50;99.90;;;;;;5096400;28;20177;-73
2021/05/05 03:51:17;;;;;;;0.30;0.30;;;7.40;99.90;;;;;;5096762;28;20186;-72
2021/05/05 03:59:40;;;;;;;0.30;0.30;;;7.40;99.90;;;;;;4977406;28;20277;-72
2021/05/05 04:02:06;;;;;;;0.50;0.50;;;7.40;99.90;;;;;;4977044;28;20230;-72
2021/05/05 04:04:31;;;;;;;0.40;0.40;;;7.50;99.90;;;;;;4977469;28;20183;-72
2021/05/05 04:06:57;;;;;;;0.97;0.90;;;7.50;99.90;;;;;;4977187;28;20176;-72
2021/05/05 04:09:24;;;;;;;0.63;0.53;;;7.30;99.90;;;;;;4977478;28;20218;-72
2021/05/05 04:11:50;;;;;;;0.40;0.40;;;7.40;99.90;;;;;;4977458;28;20192;-73
2021/05/05 04:14:15;;;;;;;0.40;0.40;;;7.40;99.90;;;;;;4976947;28;20709;-72
2021/05/05 04:16:41;;;;;;;0.30;0.30;;;7.20;99.90;;;;;;4975801;28;20415;-72
2021/05/05 04:19:07;;;;;;;0.30;0.30;;;7.20;99.90;;;;;;4977129;28;20202;-72
2021/05/05 04:21:33;;;;;;;0.30;0.30;;;7.30;99.90;;;;;;4976004;28;20251;-73
2021/05/05 04:24:00;;;;;;;0.30;0.30;;;7.30;99.90;;;;;;4977149;28;20538;-73
2021/05/05 04:26:25;;;;;;;0.40;0.40;;;7.20;99.90;;;;;;4976872;28;20550;-72
2021/05/05 04:28:51;;;;;;;0.40;0.40;;;7.20;99.90;;;;;;4977122;28;20179;-73
2021/05/05 04:31:18;;;;;;;0.30;0.30;;;7.00;99.90;;;;;;4976870;28;20238;-72
2021/05/05 04:33:45;;;;;;;0.40;0.40;;;6.80;99.90;;;;;;4977049;28;20262;-73
2021/05/05 04:36:12;;;;;;;0.40;0.40;;;7.00;99.90;;;;;;4976647;28;20183;-72
2021/05/05 04:38:37;;;;;;;0.30;0.30;;;7.00;99.90;;;;;;4976921;28;20555;-73
2021/05/05 04:41:03;;;;;;;0.83;0.50;;;7.10;99.90;;;;;;4976772;28;20196;-73
2021/05/05 04:43:29;;;;;;;0.30;0.30;;;7.20;99.90;;;;;;4976881;28;20171;-72
2021/05/05 04:45:54;;;;;;;0.40;0.40;;;7.20;99.90;;;;;;4976660;28;20410;-72
2021/05/05 04:48:20;;;;;;;1.07;0.47;;;7.30;99.90;;;;;;4976685;28;20239;-73
2021/05/05 04:50:46;;;;;;;0.40;0.40;;;7.10;99.90;;;;;;4976632;28;20253;-72
2021/05/05 04:53:12;;;;;;;0.32;0.32;;;6.90;99.90;;;;;;4976554;28;20199;-72
2021/05/05 04:55:37;;;;;;;0.37;0.37;;;6.80;99.90;;;;;;4976376;28;20642;-72
2021/05/05 04:58:03;;;;;;;1.23;0.50;;;7.00;99.90;;;;;;4976372;28;20774;-72
2021/05/05 05:00:29;;;;;;;0.40;0.40;;;7.20;99.90;;;;;;4976160;28;20666;-72
2021/05/05 05:02:55;;;;;;;0.73;0.47;;;7.30;99.90;;;;;;4976519;28;20167;-72
2021/05/05 05:05:22;;;;;;;0.40;0.40;;;7.30;99.90;;;;;;4976149;28;20221;-72
2021/05/05 05:07:49;;;;;;;0.30;0.30;;;7.30;99.90;;;;;;4976478;28;20251;-72
2021/05/05 05:10:14;;;;;;;0.50;0.50;;;7.20;99.90;;;;;;4976241;28;20254;-73
2021/05/05 05:12:40;;;;;;;0.40;0.40;;;7.30;99.90;;;;;;4974924;28;20648;-72
2021/05/05 05:15:06;;;;;;;0.50;0.40;;;7.30;99.90;;;;;;4975931;28;20187;-73
2021/05/05 05:17:32;;;;;;;0.30;0.30;;;7.20;99.90;;;;;;4976000;28;20211;-73
2021/05/05 05:19:58;;;;;;;0.50;0.30;;;7.20;99.90;;;;;;4976150;28;20212;-73
2021/05/05 05:22:23;;;;;;;1.33;0.40;;;7.30;99.90;;;;;;4975969;28;20434;-72
2021/05/05 05:24:50;;;;;;;0.40;0.40;;;7.40;99.90;;;;;;4975881;28;20657;-72
2021/05/05 05:27:16;;;;;;;0.40;0.40;;;7.50;99.90;;;;;;4975225;28;20629;-72
2021/05/05 05:29:41;;;;;;;0.50;0.50;;;7.20;99.90;;;;;;4976048;28;20188;-73
2021/05/05 05:32:07;;;;;;;0.40;0.40;;;7.30;99.80;;;;;;4975734;28;20207;-74
2021/05/05 05:34:33;;;;;;;0.40;0.40;;;7.50;99.90;;;;;;4975550;28;20186;-73
2021/05/05 05:36:58;;;;;;;0.50;0.40;;;7.90;99.90;;;;;;4976159;28;20187;-72
2021/05/05 05:39:24;;;;;;;0.50;0.40;;;8.10;99.10;;;;;;4975780;28;20200;-72
2021/05/05 05:41:50;;;;;;;0.40;0.40;;;8.20;99.90;;;;;;4975517;28;20191;-73
2021/05/05 05:44:15;;;;;;;0.40;0.40;;;8.10;98.60;;;;;;4975430;28;20171;-72
2021/05/05 05:46:41;;;;;;;0.40;0.40;;;7.70;98.80;;;;;;4975468;28;20306;-72
2021/05/05 05:49:07;;;;;;;0.40;0.40;;;7.40;99.10;;;;;;4975439;28;20190;-72
2021/05/05 05:51:34;;;;;;;0.40;0.40;;;7.10;99.90;;;;;;4975350;28;20576;-72
2021/05/05 05:54:00;;;;;;;0.50;0.50;;;7.10;99.90;;;;;;4975344;28;20201;-72
2021/05/05 05:56:26;;;;;;;0.43;0.43;;;7.20;99.90;;;;;;4975112;28;20176;-72
2021/05/05 05:58:52;;;;;;;0.50;0.40;;;7.30;99.90;;;;;;4975425;28;20207;-72
2021/05/05 06:01:17;;;;;;;0.40;0.40;;;7.30;99.90;;;;;;4975265;28;20202;-72
2021/05/05 06:03:43;;;;;;;0.40;0.40;;;7.20;99.90;;;;;;4975160;28;20796;-72
2021/05/05 06:06:09;;;;;;;0.73;0.57;;;7.00;99.90;;;;;;4975012;28;20216;-72
2021/05/05 06:08:37;;;;;;;0.43;0.43;;;7.10;99.90;;;;;;4975149;28;20549;-72
2021/05/05 06:11:02;;;;;;;8.80;1.60;;;7.00;99.90;;;;;;4975462;28;20659;-72
2021/05/05 06:13:28;;;;;;;0.90;0.57;;;7.00;99.90;;;;;;4973868;28;20185;-72
2021/05/05 06:15:54;;;;;;;1.73;0.50;;;6.80;99.90;;;;;;4974702;28;20185;-71
2021/05/05 06:18:19;;;;;;;2.77;0.80;;;6.90;99.90;;;;;;4975462;28;20195;-72
2021/05/05 06:20:45;;;;;;;1.40;1.20;;;7.10;99.90;;;;;;4974579;28;20322;-72
2021/05/05 06:23:11;;;;;;;0.70;0.50;;;7.30;99.90;;;;;;4975181;28;20175;-75
2021/05/05 06:25:37;;;;;;;2.47;0.68;;;7.40;99.90;;;;;;4974559;28;20164;-72
2021/05/05 06:28:03;;;;;;;1.40;0.53;;;7.40;99.90;;;;;;4974858;28;20186;-72
2021/05/05 06:30:28;;;;;;;1.23;0.50;;;7.40;99.90;;;;;;4974790;28;20184;-72
2021/05/05 06:32:54;;;;;;;0.63;0.50;;;7.40;99.90;;;;;;4974907;28;20658;-71
2021/05/05 06:35:20;;;;;;;0.60;0.60;;;7.50;99.90;;;;;;4973301;28;20176;-72
2021/05/05 06:37:45;;;;;;;0.40;0.40;;;7.80;99.90;;;;;;4975278;28;20176;-73
2021/05/05 06:40:12;;;;;;;0.40;0.40;;;7.70;99.90;;;;;;4974493;28;20649;-72
2021/05/05 06:42:38;;;;;;;0.75;0.40;;;7.60;99.90;;;;;;4975028;28;20198;-73
2021/05/05 06:45:06;;;;;;;0.60;0.60;;;7.70;99.90;;;;;;4974459;28;20641;-73
2021/05/05 06:47:31;;;;;;;2.15;0.75;;;7.70;99.90;;;;;;4974472;28;20635;-72
2021/05/05 06:49:57;;;;;;;0.97;0.97;;;7.50;99.90;;;;;;4974714;28;20259;-72
2021/05/05 06:52:23;;;;;;;0.80;0.50;;;7.50;99.90;;;;;;4974095;28;20202;-72
2021/05/05 06:54:49;;;;;;;0.95;0.93;;;7.40;99.90;;;;;;4974764;28;20571;-72
2021/05/05 06:57:14;;;;;;;0.97;0.87;;;7.40;99.90;;;;;;4974370;28;20229;-72
2021/05/05 06:59:40;;;;;;;2.50;0.60;;;7.60;99.90;;;;;;4974464;28;20249;-72
2021/05/05 07:02:05;;;;;;;1.27;1.10;;;7.50;99.90;;;;;;4974341;28;20571;-72
2021/05/05 07:04:31;;;;;;;1.63;0.70;;;7.30;99.90;;;;;;4974323;28;20741;-72
2021/05/05 07:06:57;;;;;;;0.90;0.90;;;7.20;99.90;;;;;;4974206;28;20167;-73
2021/05/05 07:09:23;;;;;;;0.80;0.70;;;7.40;99.90;;;;;;4974422;28;20438;-72
2021/05/05 07:11:48;;;;;;;1.23;0.80;;;7.80;99.90;;;;;;4973027;28;20192;-72
2021/05/05 07:14:14;;;;;;;0.83;0.77;;;7.90;99.90;;;;;;4974738;28;20180;-72
2021/05/05 07:16:40;;;;;;;0.77;0.77;;;8.20;99.90;;;;;;4973089;28;20188;-73
2021/05/05 07:19:06;;;;;;;0.98;0.98;;;8.20;99.90;;;;;;4974428;28;20579;-72
2021/05/05 07:21:32;;;;;;;2.20;1.27;;;8.60;98.80;;;;;;4974397;28;20189;-72
2021/05/05 07:23:58;;;;;;;1.07;1.00;;;8.70;97.80;;;;;;4974258;28;20634;-72
2021/05/05 07:26:24;;;;;;;0.80;0.80;;;8.90;97.10;;;;;;4974175;28;20165;-73
2021/05/05 07:28:49;;;;;;;1.50;1.40;;;8.70;96.60;;;;;;4974349;28;20169;-72
2021/05/05 07:31:16;;;;;;;1.50;1.40;;;8.70;96.40;;;;;;4974170;28;20255;-72
2021/05/05 07:33:42;;;;;;;1.15;1.05;;;8.30;97.50;;;;;;4973863;28;20579;-73
2021/05/05 07:36:14;;;;;;;3.08;1.77;;;7.90;97.50;;;;;;4972879;28;20185;-72
2021/05/05 07:38:59;;;;;;;3.05;1.77;;;8.20;98.80;;;;;;4974283;28;20200;-72
2021/05/05 07:44:50;;;;;;;1.60;1.23;;;9.80;94.60;;;;;;4944272;28;20417;-72
2021/05/05 07:47:28;;;;;;;3.57;1.30;;;12.00;92.70;;;;;;4973973;28;20502;-72
2021/05/05 07:49:56;;;;;;;2.20;2.00;;;13.60;86.00;;;;;;4976373;28;20883;-72
2021/05/05 07:52:22;;;;;;;1.07;0.97;;;15.00;76.70;;;;;;4976923;28;20447;-73
2021/05/05 07:54:48;;;;;;;1.00;1.00;;;15.00;72.50;;;;;;4978021;28;20404;-73
2021/05/05 07:57:15;;;;;;;2.30;1.17;;;14.30;70.80;;;;;;4977531;28;20405;-72
2021/05/05 07:59:41;;;;;;;1.50;1.03;;;13.20;72.10;;;;;;4977697;28;20454;-72
2021/05/05 08:02:07;;;;;;;2.70;1.37;;;12.40;75.20;;;;;;4977739;28;20450;-73
2021/05/05 08:04:33;;;;;;;1.33;1.23;;;11.70;75.50;;;;;;4977647;28;20479;-72
2021/05/05 08:07:00;;;;;;;3.00;1.67;;;11.10;77.00;;;;;;4975884;28;20913;-73
2021/05/05 08:09:26;;;;;;;2.50;1.33;;;10.90;78.40;;;;;;4977578;28;20917;-73
2021/05/05 08:11:52;;;;;;;1.37;0.80;;;11.00;78.60;;;;;;4977274;28;20887;-73
2021/05/05 08:14:19;;;;;;;1.20;1.20;;;10.90;80.60;;;;;;4976049;28;20424;-72
2021/05/05 08:16:46;;;;;;;1.05;1.05;;;10.30;82.20;;;;;;4977137;28;20508;-73
2021/05/05 08:19:13;;;;;;;1.77;0.93;;;9.90;88.30;;;;;;4977148;28;20200;-73
2021/05/05 08:21:41;;;;;;;2.45;1.45;;;9.40;85.00;;;;;;4975810;28;20278;-73
2021/05/05 08:24:07;;;;;;;1.98;1.02;;;9.50;86.90;;;;;;4977100;28;20593;-73
2021/05/05 08:26:33;;;;;;;2.55;1.15;;;9.70;90.00;;;;;;4976972;28;20180;-74
2021/05/05 08:28:58;;;;;;;2.60;1.17;;;9.70;85.90;;;;;;4977203;28;20263;-72
2021/05/05 08:31:25;;;;;;;10.10;1.57;;;9.40;85.50;;;;;;4976023;28;20209;-73
2021/05/05 08:33:50;;;;;;;2.67;2.47;;;9.10;87.20;;;;;;4976903;28;20192;-72
2021/05/05 08:36:16;;;;;;;1.50;0.77;;;10.00;86.70;;;;;;4976693;28;20181;-73
2021/05/05 08:38:42;;;;;;;1.10;0.90;;;11.40;81.40;;;;;;4977080;28;20199;-72
2021/05/05 08:41:11;;;;;;;1.13;1.00;;;12.60;79.80;;;;;;4976880;28;20189;-72
2021/05/05 08:43:37;;;;;;;1.33;0.80;;;13.90;68.50;;;;;;4976874;28;20172;-73
2021/05/05 08:46:06;;;;;;;1.40;1.03;;;15.00;65.90;;;;;;4976715;28;20431;-74
2021/05/05 08:48:35;;;;;;;6.10;1.23;;;15.70;58.70;;;;;;4975532;28;20545;-72
2021/05/05 08:51:01;;;;;;;2.13;1.60;;;16.40;54.30;;;;;;4976601;28;20446;-74
2021/05/05 08:53:26;;;;;;;1.30;1.20;;;16.80;55.60;;;;;;4976520;28;20401;-73
2021/05/05 08:55:52;;;;;;;1.37;1.07;;;16.10;55.40;;;;;;4976277;28;20412;-73
2021/05/05 08:58:18;;;;;;;1.73;1.10;;;14.40;56.30;;;;;;4976471;28;20277;-73
2021/05/05 09:00:44;;;;;;;0.80;0.80;;;12.60;59.60;;;;;;4975246;28;20499;-73
2021/05/05 09:03:09;;;;;;;2.00;1.10;;;12.60;63.60;;;;;;4976436;28;20515;-74
2021/05/05 09:05:58;;;;;;;0.90;0.90;;;12.80;58.80;;;;;;4976226;28;20173;-73
2021/05/05 09:08:26;;;;;;;0.97;0.90;;;12.80;58.20;;;;;;4976353;28;20173;-73
2021/05/05 09:10:59;;;;;;;4.53;1.50;;;13.00;60.50;;;;;;4976356;28;20476;-73
2021/05/05 09:13:47;;;;;;;1.93;1.00;;;14.00;56.30;;;;;;4976293;28;20387;-73
2021/05/05 09:16:17;;;;;;;3.33;1.40;;;13.90;56.20;;;;;;4976039;28;20453;-73
2021/05/05 09:19:10;;;;;;;0.97;0.97;;;14.60;54.50;;;;;;4974785;28;20455;-73
2021/05/05 09:21:43;;;;;;;0.60;0.60;;;14.60;55.50;;;;;;4972859;28;20525;-72
2021/05/05 09:24:20;;;;;;;0.63;0.60;;;14.50;53.70;;;;;;4976029;28;20436;-73
2021/05/05 09:26:57;;;;;;;1.80;1.00;;;13.80;55.00;;;;;;4975742;28;20400;-73
2021/05/05 09:29:46;;;;;;;2.33;1.20;;;13.40;56.20;;;;;;4975348;28;20981;-72
2021/05/05 09:32:14;;;;;;;1.13;0.93;;;13.60;57.60;;;;;;4975817;28;20428;-73
2021/05/05 09:34:40;;;;;;;1.43;0.90;;;14.20;57.00;;;;;;4975761;28;20432;-72
2021/05/05 09:37:10;;;;;;;0.70;0.70;;;14.10;56.00;;;;;;4974300;28;20792;-72
2021/05/05 09:39:39;;;;;;;1.80;0.80;;;13.40;57.10;;;;;;4975903;28;20452;-73
2021/05/05 09:42:25;;;;;;;0.60;0.60;;;13.50;57.10;;;;;;4974308;28;20437;-73
2021/05/05 09:44:54;;;;;;;2.40;1.27;;;13.20;57.10;;;;;;4975807;28;20404;-74
2021/05/05 09:47:20;;;;;;;1.17;0.97;;;12.80;57.00;;;;;;4975555;28;20405;-73
2021/05/05 09:49:46;;;;;;;0.97;0.80;;;12.10;57.70;;;;;;4975505;28;20428;-73
2021/05/05 09:52:16;;;;;;;3.10;1.03;;;11.10;60.60;;;;;;4974158;28;20204;-72
2021/05/05 09:54:59;;;;;;;1.23;0.93;;;11.80;59.30;;;;;;4974270;28;20420;-72
2021/05/05 09:57:37;;;;;;;1.23;1.13;;;13.50;57.30;;;;;;4975289;28;20446;-73
2021/05/05 10:00:10;;;;;;;0.60;0.60;;;12.80;58.20;;;;;;4975093;28;20459;-73
2021/05/05 10:02:47;;;;;;;0.90;0.90;;;12.50;56.20;;;;;;4975494;28;20400;-72
2021/05/05 10:05:18;;;;;;;1.90;0.80;;;12.40;55.90;;;;;;4975158;28;20391;-73
2021/05/05 10:07:54;;;;;;;2.53;0.73;;;12.20;55.90;;;;;;4975060;28;20976;-73
2021/05/05 10:10:23;;;;;;;1.07;0.80;;;11.80;57.00;;;;;;4975033;28;20408;-72
2021/05/05 10:12:50;;;;;;;0.80;0.60;;;11.40;59.00;;;;;;4973619;28;20488;-73
2021/05/05 10:15:17;;;;;;;2.90;0.80;;;10.50;59.30;;;;;;4974851;28;20404;-73
2021/05/05 10:17:47;;;;;;;1.20;0.95;;;10.20;59.20;;;;;;4974970;28;20169;-72
2021/05/05 10:20:16;;;;;;;1.37;1.20;;;10.30;60.50;;;;;;4975128;28;20197;-72
2021/05/05 10:22:42;;;;;;;0.67;0.67;;;11.10;59.90;;;;;;4974899;28;20421;-72
2021/05/05 10:25:12;;;;;;;1.43;0.63;;;12.30;59.90;;;;;;4975172;28;20404;-73
2021/05/05 10:27:38;;;;;;;1.17;1.00;;;13.30;56.30;;;;;;4974215;28;20487;-72
2021/05/05 10:30:05;;;;;;;0.90;0.80;;;14.70;54.00;;;;;;4975040;28;20832;-72
2021/05/05 10:32:33;;;;;;;0.93;0.63;;;15.60;50.50;;;;;;4974780;28;20311;-73
2021/05/05 10:34:59;;;;;;;0.90;0.77;;;16.20;53.00;;;;;;4974893;28;20812;-72
2021/05/05 10:37:46;;;;;;;5.13;1.20;;;16.60;50.10;;;;;;4973525;28;20892;-73
2021/05/05 10:40:21;;;;;;;0.90;0.90;;;15.90;46.80;;;;;;4974875;28;20806;-72
2021/05/05 10:42:59;;;;;;;2.00;1.90;;;15.10;46.80;;;;;;4974842;28;20954;-72
2021/05/05 10:45:36;;;;;;;1.63;0.73;;;14.50;47.40;;;;;;4974670;28;20467;-72
2021/05/05 10:48:05;;;;;;;3.90;1.17;;;14.60;48.10;;;;;;4974836;28;20414;-73
2021/05/05 10:50:50;;;;;;;1.60;0.83;;;14.60;53.50;;;;;;4974558;28;20988;-73
2021/05/05 10:53:21;;;;;;;2.20;0.90;;;14.40;46.90;;;;;;4974654;28;20755;-73
2021/05/05 10:55:53;;;;;;;1.07;0.70;;;13.60;48.90;;;;;;4973198;28;20416;-72
2021/05/05 10:58:27;;;;;;;0.60;0.60;;;13.00;50.80;;;;;;4975146;28;20501;-73
2021/05/05 11:00:55;;;;;;;3.50;0.90;;;12.80;50.10;;;;;;4974089;28;20470;-72
2021/05/05 11:03:43;;;;;;;0.67;0.67;;;12.60;51.60;;;;;;4974802;28;20411;-72
2021/05/05 11:06:32;;;;;;;1.20;0.83;;;12.60;51.00;;;;;;4973202;28;20994;-72
2021/05/05 11:09:10;;;;;;;0.60;0.60;;;12.50;49.90;;;;;;4963074;28;20411;-74
2021/05/05 11:11:44;;;;;;;1.03;0.80;;;12.10;49.90;;;;;;4973318;28;20430;-73
2021/05/05 11:14:33;;;;;;;0.80;0.80;;;11.90;51.20;;;;;;4974435;28;20415;-72
2021/05/05 11:17:03;;;;;;;1.67;0.70;;;11.90;49.50;;;;;;4974239;28;20423;-72
2021/05/05 11:19:37;;;;;;;0.73;0.73;;;11.90;50.10;;;;;;4973164;28;20464;-72
2021/05/05 11:22:18;;;;;;;0.67;0.67;;;12.00;50.00;;;;;;4974923;28;20431;-73
2021/05/05 11:24:45;;;;;;;0.50;0.50;;;12.20;52.40;;;;;;4977096;28;20411;-72
2021/05/05 11:27:12;;;;;;;1.53;0.80;;;12.30;49.60;;;;;;4978136;28;20404;-73
2021/05/05 11:29:40;;;;;;;0.97;0.97;;;12.60;53.40;;;;;;4978207;28;20418;-73
2021/05/05 11:32:07;;;;;;;0.80;0.73;;;12.70;51.40;;;;;;4977970;28;20515;-73
2021/05/05 11:34:36;;;;;;;1.20;0.70;;;12.20;49.50;;;;;;4978029;28;20406;-72
2021/05/05 11:37:05;;;;;;;1.80;0.73;;;12.20;51.50;;;;;;4977943;28;20467;-73
2021/05/05 11:39:44;;;;;;;3.27;1.33;;;12.20;53.60;;;;;;4977929;28;20446;-72
2021/05/05 11:42:11;;;;;;;0.70;0.70;;;12.60;51.30;;;;;;4976489;28;20941;-73
2021/05/05 11:44:47;;;;;;;1.33;0.80;;;12.80;50.40;;;;;;4977889;28;20410;-73
2021/05/05 11:47:34;;;;;;;1.60;0.93;;;13.10;52.80;;;;;;4977716;28;20403;-72
2021/05/05 11:50:03;;;;;;;1.80;0.80;;;13.00;49.70;;;;;;4977426;28;20478;-73
2021/05/05 11:52:30;;;;;;;1.13;0.80;;;12.30;50.40;;;;;;4977398;28;20853;-73
2021/05/05 11:55:06;;;;;;;1.57;0.63;;;12.30;52.30;;;;;;4977646;28;20458;-73
2021/05/05 11:57:36;;;;;;;0.70;0.70;;;12.70;53.60;;;;;;4976470;28;20422;-73
2021/05/05 12:00:16;;;;;;;0.53;0.53;;;12.90;49.20;;;;;;4976237;28;20983;-73
2021/05/05 12:02:53;;;;;;;1.73;0.80;;;12.80;47.60;;;;;;4977535;28;20455;-73
2021/05/05 12:05:31;;;;;;;1.80;1.03;;;12.40;47.90;;;;;;4977259;28;20877;-72
2021/05/05 12:08:05;;;;;;;0.50;0.50;;;11.90;50.00;;;;;;4976060;28;20425;-73
2021/05/05 12:10:39;;;;;;;5.70;1.40;;;11.90;50.90;;;;;;4976190;28;20820;-72
2021/05/05 12:13:12;;;;;;;0.83;0.67;;;11.80;50.60;;;;;;4977236;28;20400;-73
2021/05/05 12:15:41;;;;;;;0.57;0.57;;;12.00;52.10;;;;;;4975872;28;20809;-73
2021/05/05 12:18:20;;;;;;;1.67;1.00;;;12.10;50.60;;;;;;4975913;28;20422;-73
2021/05/05 12:20:47;;;;;;;0.83;0.83;;;11.90;50.70;;;;;;4977301;28;20432;-73
2021/05/05 12:23:14;;;;;;;0.53;0.53;;;11.80;48.70;;;;;;4977164;28;20467;-73
2021/05/05 12:25:40;;;;;;;1.20;1.10;;;11.60;48.40;;;;;;4977005;28;20408;-72
2021/05/05 12:28:14;;;;;;;0.97;0.50;;;11.60;48.90;;;;;;4977029;28;20397;-73
2021/05/05 12:30:48;;;;;;;0.45;0.45;;;11.30;48.30;;;;;;4977175;28;20507;-73
2021/05/05 12:33:16;;;;;;;0.63;0.63;;;11.20;49.50;;;;;;4977104;28;20570;-72
2021/05/05 12:35:44;;;;;;;0.50;0.50;;;10.90;50.50;;;;;;4976616;28;20408;-73
2021/05/05 12:38:18;;;;;;;0.70;0.70;;;10.90;49.10;;;;;;4976963;28;20184;-72
2021/05/05 12:40:45;;;;;;;1.52;1.13;;;10.50;50.80;;;;;;4976699;28;20192;-73
2021/05/05 12:43:25;;;;;;;0.90;0.90;;;10.70;51.70;;;;;;4976825;28;20177;-72
2021/05/05 12:45:53;;;;;;;0.77;0.60;;;10.60;51.50;;;;;;4976666;28;20810;-72
2021/05/05 12:48:35;;;;;;;1.38;0.60;;;10.40;50.30;;;;;;4976870;28;20161;-73
2021/05/05 12:51:20;;;;;;;3.65;1.00;;;10.30;51.40;;;;;;4976825;28;20207;-72
2021/05/05 12:54:03;;;;;;;1.58;0.65;;;10.40;52.00;;;;;;4976656;28;20502;-72
2021/05/05 12:56:49;;;;;;;0.60;0.50;;;10.10;52.90;;;;;;4975086;28;20267;-73
2021/05/05 12:59:25;;;;;;;0.63;0.63;;;10.10;52.90;;;;;;4975134;28;20200;-73
2021/05/05 13:02:10;;;;;;;2.05;0.60;;;10.10;53.00;;;;;;4976280;28;20607;-72
2021/05/05 13:04:42;;;;;;;0.63;0.63;;;10.20;53.00;;;;;;4976512;28;20175;-73
2021/05/05 13:07:30;;;;;;;0.60;0.60;;;10.40;52.60;;;;;;4976347;28;20165;-73
2021/05/05 13:10:15;;;;;;;1.10;0.60;;;10.50;53.50;;;;;;4976450;28;20184;-72